Main page
METAR-TAF:

METAR-TAF

Airports :

Pápa, Hungary

latitude: 47-12N, longitude: 017-30E, elevation: 145 m

Current weather observation

The report was made 44 minutes ago, at 12:45 UTC
Wind 6 kt from the North/Northwest, varying between West/Southwest and East/Northeast
Temperature 21°C
Humidity 26%
Pressure 1020 hPa
Visibility 10 km or more
no clouds below 1500 m and no cumulonimbus

METAR: LHPA 211245Z 34006KT 250V070 CAVOK 21/01 Q1020 NOSIG RMK BLU

Time: 15:29 (13:29 UTC)

Forecast

The report was made 2 hours and 14 minutes ago, at 11:15 UTC
Forecast valid from 21 at 12 UTC to 22 at 12 UTC
Wind 6 kt from the West/Northwest
Visibility 10 km or more
no clouds below 1500 m and no cumulonimbus
Becoming
from 21 at 15 UTC to 21 at 18 UTC
Wind 3 kt from variable directions
Becoming
from 21 at 20 UTC to 21 at 23 UTC
Wind 5 kt from the South

TAF: LHPA 211115Z 2112/2212 29006KT CAVOK BECMG 2115/2118 VRB03KT BECMG 2120/2123 19005KT

Weather observations and forecasts of more than 4000 airports (METAR and TAF reports).

The available stations are represented by yellow and red dots on the map.

Hover mouse over dot to see the name of the station.

Then click to see weather observations and forecasts.

To change the map : click on the green buttons with a black cross to zoom in, on the green button with a dash to zoom out, or on the green arrows for adjacent maps.


METAR-TAF: